Time;durP1;ratioP1;P1;durP2;ratioP2;P2;SDS_P1;SDS_P2;PMS_P1;PMS_P2;Temp;Humidity;BMP_temperature;BMP_pressure;BME280_temperature;BME280_humidity;BME280_pressure;Samples;Min_cycle;Max_cycle;Signal;HPM_P1;HPM_P2
2022/03/21 00:01:51;;;;;;;7.03;2.95;;;9.90;69.50;;;;;;10905500;32;20050;-71
2022/03/21 00:07:53;;;;;;;6.43;4.43;;;9.80;69.90;;;;;;10905572;32;20488;-68
2022/03/21 00:13:57;;;;;;;8.35;3.03;;;9.80;70.50;;;;;;10904427;32;20060;-69
2022/03/21 00:20:01;;;;;;;5.37;3.08;;;9.80;70.10;;;;;;10891131;32;20419;-68
2022/03/21 00:26:04;;;;;;;7.05;3.58;;;9.70;70.80;;;;;;10904378;32;20042;-69
2022/03/21 00:32:07;;;;;;;6.05;3.45;;;9.70;70.80;;;;;;10901447;32;20019;-69
2022/03/21 00:38:17;;;;;;;4.43;2.92;;;9.70;70.70;;;;;;10890719;32;20296;-69
2022/03/21 00:44:19;;;;;;;7.53;4.32;;;9.60;70.50;;;;;;10903568;32;20011;-69
2022/03/21 00:50:24;;;;;;;8.45;3.22;;;9.50;70.60;;;;;;10903692;32;20019;-68
2022/03/21 00:56:26;;;;;;;3.25;2.12;;;9.50;70.60;;;;;;10903537;32;20042;-69
2022/03/21 01:02:28;;;;;;;6.47;3.53;;;9.50;70.70;;;;;;10903531;32;20046;-68
2022/03/21 01:08:31;;;;;;;5.47;3.05;;;9.50;70.70;;;;;;10891312;32;20320;-68
2022/03/21 01:14:33;;;;;;;7.03;3.60;;;9.50;70.70;;;;;;10908080;32;20054;-69
2022/03/21 01:20:35;;;;;;;4.97;2.50;;;9.50;70.70;;;;;;10910429;32;20057;-69
2022/03/21 01:26:37;;;;;;;11.55;5.30;;;9.40;70.70;;;;;;10896889;32;20019;-68
2022/03/21 01:32:42;;;;;;;6.28;3.17;;;9.30;70.80;;;;;;10909908;32;20387;-68
2022/03/21 01:38:44;;;;;;;5.43;3.30;;;9.20;70.60;;;;;;10896355;32;20024;-69
2022/03/21 01:44:51;;;;;;;6.60;3.70;;;9.10;70.80;;;;;;10909473;32;20007;-68
2022/03/21 01:50:53;;;;;;;8.18;4.28;;;9.10;70.90;;;;;;10909078;32;20057;-68
2022/03/21 01:56:56;;;;;;;4.72;3.15;;;9.00;71.00;;;;;;10895037;32;20035;-68
2022/03/21 02:02:58;;;;;;;5.62;3.22;;;8.90;71.00;;;;;;10908732;32;20400;-69
2022/03/21 02:09:03;;;;;;;7.22;2.92;;;8.90;71.10;;;;;;10908591;32;20015;-69
2022/03/21 02:15:05;;;;;;;4.60;2.62;;;8.80;71.10;;;;;;10908342;32;20035;-68
2022/03/21 02:21:15;;;;;;;5.70;3.30;;;8.80;71.30;;;;;;10890550;32;20027;-68
2022/03/21 02:27:18;;;;;;;5.28;2.75;;;8.70;71.30;;;;;;10907880;32;20032;-68
2022/03/21 02:33:21;;;;;;;5.65;2.92;;;8.70;71.20;;;;;;10907641;32;20032;-68
2022/03/21 02:39:25;;;;;;;4.20;2.22;;;8.70;71.40;;;;;;10907497;32;20030;-68
2022/03/21 02:45:27;;;;;;;6.85;3.60;;;8.60;71.40;;;;;;10907342;32;20375;-68
2022/03/21 02:51:31;;;;;;;4.15;2.45;;;8.50;71.40;;;;;;10907113;32;20351;-68
2022/03/21 02:57:33;;;;;;;7.07;4.12;;;8.50;71.40;;;;;;10902734;32;20019;-68
2022/03/21 03:03:35;;;;;;;5.55;2.53;;;8.40;71.60;;;;;;10906774;32;20026;-68
2022/03/21 03:09:37;;;;;;;5.53;3.67;;;8.20;71.70;;;;;;10906515;32;20042;-68
2022/03/21 03:15:39;;;;;;;7.72;5.25;;;8.20;71.80;;;;;;10903746;32;20319;-68
2022/03/21 03:21:57;;;;;;;4.78;2.80;;;8.20;71.60;;;;;;10906034;32;20055;-68
2022/03/21 03:27:59;;;;;;;5.97;3.62;;;8.20;71.50;;;;;;10905888;32;20430;-68
2022/03/21 03:34:02;;;;;;;6.47;2.92;;;8.10;71.50;;;;;;10905054;32;20080;-68
2022/03/21 03:40:05;;;;;;;5.62;3.85;;;8.00;71.60;;;;;;10905310;32;20050;-68
2022/03/21 03:46:07;;;;;;;8.88;3.72;;;8.00;71.60;;;;;;10905160;32;20019;-68
2022/03/21 03:52:09;;;;;;;5.43;2.85;;;7.90;71.80;;;;;;10904959;32;20392;-68
2022/03/21 03:58:12;;;;;;;7.72;5.47;;;7.90;72.30;;;;;;10904842;32;20050;-68
2022/03/21 04:04:14;;;;;;;6.22;4.22;;;7.80;72.40;;;;;;10904573;32;20046;-68
2022/03/21 04:10:17;;;;;;;5.75;3.08;;;7.80;72.10;;;;;;10904561;32;20344;-69
2022/03/21 04:16:19;;;;;;;6.60;3.67;;;7.80;72.10;;;;;;10904225;32;20031;-68
2022/03/21 04:22:21;;;;;;;8.27;5.03;;;7.80;72.20;;;;;;10904358;32;20049;-68
2022/03/21 04:28:23;;;;;;;7.18;4.47;;;7.80;72.00;;;;;;10904158;32;20028;-68
2022/03/21 04:34:25;;;;;;;10.07;6.18;;;7.90;71.30;;;;;;10903129;32;20054;-69
2022/03/21 04:40:27;;;;;;;7.03;4.47;;;7.80;71.50;;;;;;10903881;32;20023;-68
2022/03/21 04:46:29;;;;;;;8.40;5.90;;;7.70;71.40;;;;;;10906349;32;20050;-68
2022/03/21 04:52:31;;;;;;;8.05;5.28;;;7.70;71.60;;;;;;10911184;32;20031;-68
2022/03/21 04:58:33;;;;;;;7.72;4.53;;;7.60;71.60;;;;;;10910979;32;20031;-68
2022/03/21 05:04:35;;;;;;;8.88;4.90;;;7.60;71.20;;;;;;10910871;32;20431;-68
2022/03/21 05:10:37;;;;;;;10.48;5.65;;;7.60;72.10;;;;;;10910575;32;20020;-68
2022/03/21 05:17:05;;;;;;;8.80;4.32;;;7.60;72.30;;;;;;10910376;32;20031;-68
2022/03/21 05:35:55;;;;;;;8.73;6.37;;;7.50;71.50;;;;;;10909725;32;20024;-68
2022/03/21 05:41:57;;;;;;;8.63;6.53;;;7.70;71.60;;;;;;10909728;32;20053;-69
2022/03/21 05:54:19;;;;;;;10.93;6.70;;;7.70;70.90;;;;;;10909154;32;20035;-68
2022/03/21 06:00:21;;;;;;;11.43;6.35;;;7.70;71.10;;;;;;10908469;32;20050;-68
2022/03/21 06:06:24;;;;;;;11.90;7.70;;;7.80;71.20;;;;;;10908750;32;20023;-68
2022/03/21 06:12:27;;;;;;;13.90;7.53;;;7.90;71.10;;;;;;10908501;32;20039;-68
2022/03/21 06:18:31;;;;;;;13.57;8.90;;;8.00;71.10;;;;;;10894749;32;20031;-68
2022/03/21 06:24:33;;;;;;;13.95;9.20;;;8.10;71.20;;;;;;10908147;32;20112;-68
2022/03/21 06:30:37;;;;;;;14.07;8.10;;;8.20;71.40;;;;;;10907809;32;20022;-68
2022/03/21 06:36:40;;;;;;;13.98;8.82;;;8.50;71.20;;;;;;10907631;32;20058;-68
2022/03/21 06:42:43;;;;;;;12.68;7.65;;;8.20;71.40;;;;;;10907282;32;20027;-68
2022/03/21 06:49:03;;;;;;;16.25;8.60;;;8.20;72.40;;;;;;10903124;32;20035;-68
2022/03/21 06:55:07;;;;;;;13.80;9.07;;;8.60;72.30;;;;;;10906713;32;20030;-69
2022/03/21 07:01:25;;;;;;;17.23;10.77;;;8.90;71.90;;;;;;10902889;32;20054;-68
2022/03/21 07:07:27;;;;;;;16.23;11.10;;;9.20;71.80;;;;;;10904039;32;20050;-68
2022/03/21 07:13:30;;;;;;;14.93;9.27;;;9.30;72.00;;;;;;10900779;32;20110;-70
2022/03/21 07:19:33;;;;;;;13.40;8.93;;;9.60;72.20;;;;;;10902885;27;20023;-68
2022/03/21 07:25:35;;;;;;;14.87;8.73;;;9.70;71.70;;;;;;10905776;32;20347;-68
2022/03/21 07:31:37;;;;;;;12.50;9.07;;;9.70;71.80;;;;;;10904243;32;20438;-69
2022/03/21 07:37:52;;;;;;;9.30;6.62;;;9.90;72.10;;;;;;10905221;32;20046;-68
2022/03/21 07:43:57;;;;;;;9.63;6.68;;;9.90;71.90;;;;;;10904624;32;20054;-68
2022/03/21 07:49:59;;;;;;;13.57;7.30;;;10.10;72.70;;;;;;10904958;32;20042;-69
2022/03/21 07:56:01;;;;;;;7.72;4.75;;;10.20;72.30;;;;;;10904687;32;20036;-68
2022/03/21 08:02:05;;;;;;;14.18;6.95;;;10.30;71.70;;;;;;10906655;32;20392;-68
2022/03/21 08:08:08;;;;;;;13.45;9.02;;;10.20;71.50;;;;;;10904366;32;20355;-69
2022/03/21 08:14:11;;;;;;;15.93;6.82;;;10.10;70.30;;;;;;10904130;32;20426;-68
2022/03/21 08:20:14;;;;;;;10.82;6.90;;;10.00;71.00;;;;;;10903656;32;20019;-69
2022/03/21 08:26:17;;;;;;;18.00;7.78;;;10.20;71.80;;;;;;10904150;32;20027;-69
2022/03/21 08:32:41;;;;;;;12.35;8.45;;;10.20;69.80;;;;;;10904017;32;20031;-68
2022/03/21 08:38:43;;;;;;;15.38;7.47;;;10.30;71.40;;;;;;10904052;32;20089;-68
2022/03/21 08:44:47;;;;;;;12.35;5.80;;;10.40;69.40;;;;;;10900045;32;20046;-68
2022/03/21 08:51:08;;;;;;;8.95;5.35;;;10.40;69.30;;;;;;10903701;32;20046;-68
2022/03/21 08:57:10;;;;;;;15.02;8.15;;;10.70;69.60;;;;;;10903699;32;20057;-68
2022/03/21 09:03:37;;;;;;;15.07;9.10;;;10.90;69.30;;;;;;10903545;32;20012;-68
2022/03/21 09:09:40;;;;;;;11.75;7.87;;;11.00;69.40;;;;;;10903521;32;20019;-69
2022/03/21 09:15:44;;;;;;;9.13;4.75;;;11.00;69.30;;;;;;10902952;32;20028;-68
2022/03/21 09:21:48;;;;;;;7.25;4.45;;;11.10;68.50;;;;;;10898821;32;20358;-68
2022/03/21 09:27:50;;;;;;;6.50;4.68;;;11.20;69.50;;;;;;10898280;32;20046;-68
2022/03/21 09:33:53;;;;;;;9.73;6.12;;;11.30;69.40;;;;;;10905215;32;20067;-68
2022/03/21 09:39:55;;;;;;;12.73;7.95;;;11.30;68.00;;;;;;10908640;32;20050;-68
2022/03/21 09:45:59;;;;;;;8.88;5.85;;;11.40;68.20;;;;;;10909295;32;20031;-68
2022/03/21 09:52:02;;;;;;;9.77;5.90;;;11.40;67.00;;;;;;10909011;32;20054;-68
2022/03/21 09:58:04;;;;;;;10.68;7.20;;;11.60;66.50;;;;;;10904501;32;20035;-68
2022/03/21 10:04:12;;;;;;;9.57;5.90;;;11.70;66.90;;;;;;10893976;32;20031;-68
2022/03/21 10:10:16;;;;;;;12.07;6.47;;;11.80;64.50;;;;;;10908337;32;20423;-69
2022/03/21 10:16:18;;;;;;;14.90;8.15;;;11.90;64.50;;;;;;10908076;32;20046;-68
2022/03/21 10:22:34;;;;;;;8.25;4.68;;;12.00;65.30;;;;;;10894593;32;20042;-69
2022/03/21 10:28:40;;;;;;;12.20;4.57;;;12.20;64.60;;;;;;10907550;32;20035;-69
2022/03/21 10:34:58;;;;;;;17.58;7.30;;;12.20;62.60;;;;;;10907467;32;20061;-68
2022/03/21 10:41:08;;;;;;;9.93;5.57;;;12.40;63.00;;;;;;10906884;32;20020;-70
2022/03/21 10:47:10;;;;;;;14.15;7.53;;;12.60;62.10;;;;;;10893773;32;20038;-70
2022/03/21 10:53:21;;;;;;;8.45;4.35;;;12.80;60.80;;;;;;10907127;32;20423;-70
2022/03/21 10:59:24;;;;;;;8.50;5.15;;;13.00;59.50;;;;;;10906407;32;20396;-70
2022/03/21 11:05:28;;;;;;;9.18;5.30;;;13.20;59.50;;;;;;10893111;32;20023;-70
2022/03/21 11:11:31;;;;;;;9.15;6.55;;;13.40;58.90;;;;;;10906275;32;20028;-70
2022/03/21 11:17:35;;;;;;;7.62;4.82;;;13.70;58.80;;;;;;10906010;32;20379;-70
2022/03/21 11:23:37;;;;;;;6.70;4.32;;;13.90;57.10;;;;;;10905010;32;20030;-68
2022/03/21 11:30:02;;;;;;;10.02;6.62;;;14.20;57.80;;;;;;10905844;32;20039;-68
2022/03/21 11:36:10;;;;;;;8.63;5.28;;;14.70;55.00;;;;;;10943308;32;20045;-68
2022/03/21 11:42:33;;;;;;;8.55;6.65;;;14.90;54.00;;;;;;10943012;32;20046;-69
2022/03/21 11:48:40;;;;;;;6.87;5.40;;;15.10;54.10;;;;;;10942730;32;20276;-68
2022/03/21 12:01:28;;;;;;;6.70;4.60;;;15.20;52.70;;;;;;10941884;32;20081;-68
2022/03/21 12:07:31;;;;;;;6.32;4.43;;;15.40;51.20;;;;;;10912149;32;20050;-68
2022/03/21 12:13:41;;;;;;;26.30;8.38;;;15.60;51.70;;;;;;10911063;32;20437;-70
2022/03/21 12:25:55;;;;;;;5.87;3.75;;;15.90;52.00;;;;;;10903951;32;20293;-70
2022/03/21 12:32:44;;;;;;;5.90;3.75;;;16.10;50.70;;;;;;10904039;32;20023;-69
2022/03/21 12:38:47;;;;;;;7.73;5.80;;;16.40;51.80;;;;;;10903959;32;20046;-69
2022/03/21 12:44:49;;;;;;;10.43;5.12;;;16.50;50.80;;;;;;10903969;32;20050;-69
2022/03/21 12:50:51;;;;;;;6.75;4.95;;;16.30;51.40;;;;;;10920094;32;20053;-69
2022/03/21 12:57:06;;;;;;;6.60;4.35;;;16.30;49.90;;;;;;10941047;32;20066;-69
2022/03/21 13:03:14;;;;;;;8.10;5.15;;;16.30;50.60;;;;;;10936537;32;20403;-69
2022/03/21 13:15:37;;;;;;;6.25;4.28;;;16.40;48.20;;;;;;10948336;32;20437;-69
2022/03/21 13:21:39;;;;;;;5.95;3.70;;;16.40;47.40;;;;;;10947994;32;20046;-69
2022/03/21 13:28:24;;;;;;;9.07;4.68;;;16.50;48.90;;;;;;10944996;32;20390;-69
2022/03/21 13:34:26;;;;;;;6.70;4.30;;;16.60;48.50;;;;;;10943279;32;20058;-69
2022/03/21 13:40:44;;;;;;;6.22;3.80;;;16.60;49.60;;;;;;10929866;32;20035;-69
2022/03/21 13:47:09;;;;;;;6.80;4.28;;;16.60;49.70;;;;;;10947107;32;20332;-70
2022/03/21 13:53:29;;;;;;;5.40;4.12;;;16.80;49.80;;;;;;10947044;32;20438;-70
2022/03/21 13:59:31;;;;;;;5.78;3.53;;;16.80;46.80;;;;;;10946923;32;20023;-69
2022/03/21 14:05:34;;;;;;;5.57;3.42;;;16.80;46.00;;;;;;10946383;32;20073;-69
2022/03/21 14:11:39;;;;;;;7.55;4.62;;;17.00;45.60;;;;;;10946367;32;20031;-70
2022/03/21 14:17:41;;;;;;;7.30;5.65;;;17.20;46.50;;;;;;10941217;32;20019;-70
2022/03/21 14:23:43;;;;;;;13.57;4.43;;;17.40;44.80;;;;;;10927109;32;20079;-70
2022/03/21 14:29:45;;;;;;;5.90;4.22;;;17.40;45.20;;;;;;10907864;32;20020;-70
2022/03/21 14:35:48;;;;;;;6.53;4.68;;;17.80;45.40;;;;;;10907611;32;20069;-69
2022/03/21 14:41:50;;;;;;;7.68;6.32;;;18.00;45.80;;;;;;10907282;32;20027;-69
2022/03/21 14:47:52;;;;;;;6.25;4.47;;;18.20;45.70;;;;;;10893868;32;20426;-69
2022/03/21 14:53:54;;;;;;;4.90;3.30;;;18.20;44.50;;;;;;10906638;32;20054;-69
2022/03/21 14:59:57;;;;;;;5.62;3.87;;;18.40;44.80;;;;;;10906520;32;20023;-69
2022/03/21 15:05:59;;;;;;;6.30;4.18;;;18.80;44.20;;;;;;10906438;32;20023;-69
2022/03/21 15:12:01;;;;;;;7.97;4.97;;;18.80;42.20;;;;;;10912991;32;20065;-70
2022/03/21 15:18:03;;;;;;;6.32;4.20;;;19.00;42.80;;;;;;10174623;32;23709923;-70
2022/03/21 15:24:06;;;;;;;7.35;5.00;;;19.40;42.20;;;;;;10791155;33;20016;-69
2022/03/21 15:30:09;;;;;;;7.47;4.85;;;19.80;42.00;;;;;;10790870;33;20063;-70
2022/03/21 15:42:33;;;;;;;7.28;5.22;;;20.90;43.40;;;;;;10800340;32;20039;-70
2022/03/21 15:48:35;;;;;;;9.07;5.93;;;21.30;42.40;;;;;;10868305;32;20015;-69
2022/03/21 15:54:42;;;;;;;4.80;3.05;;;21.10;40.60;;;;;;10867124;32;20031;-69
2022/03/21 16:00:44;;;;;;;8.85;5.87;;;21.50;41.10;;;;;;10866223;32;20070;-70
2022/03/21 16:06:48;;;;;;;10.63;6.05;;;22.20;42.30;;;;;;10836176;32;20348;-70
2022/03/21 16:12:50;;;;;;;8.18;5.22;;;22.40;42.50;;;;;;10845089;32;20393;-70
2022/03/21 16:18:52;;;;;;;5.55;3.83;;;22.60;43.10;;;;;;10865796;32;20047;-69
2022/03/21 16:25:16;;;;;;;9.20;5.18;;;22.90;42.80;;;;;;10813219;32;20032;-70
2022/03/21 16:31:18;;;;;;;6.53;4.18;;;23.30;43.40;;;;;;10829595;32;20023;-70
2022/03/21 16:37:23;;;;;;;5.68;3.55;;;23.40;43.50;;;;;;10865469;32;20043;-69
2022/03/21 16:43:27;;;;;;;5.87;3.83;;;23.40;43.80;;;;;;10860387;32;20058;-69
2022/03/21 16:49:30;;;;;;;5.40;3.12;;;22.10;45.60;;;;;;10868370;32;20054;-69
2022/03/21 16:55:33;;;;;;;7.85;4.57;;;21.00;47.60;;;;;;10873818;32;20031;-69
2022/03/21 17:01:35;;;;;;;6.80;4.00;;;20.50;48.60;;;;;;10837874;32;20065;-69
2022/03/21 17:07:37;;;;;;;5.72;3.85;;;20.20;49.40;;;;;;10870935;32;20313;-69
2022/03/21 17:13:39;;;;;;;5.47;4.10;;;19.40;50.60;;;;;;10873286;32;20039;-69
2022/03/21 17:26:04;;;;;;;10.70;5.60;;;17.70;53.50;;;;;;10873222;32;20023;-69
2022/03/21 17:32:07;;;;;;;12.05;5.80;;;17.30;54.30;;;;;;10872461;32;20336;-69
2022/03/21 17:38:10;;;;;;;10.88;7.03;;;16.80;55.10;;;;;;10872530;32;20329;-69
2022/03/21 17:44:13;;;;;;;8.93;5.93;;;16.40;55.80;;;;;;10870566;32;20073;-69
2022/03/21 17:50:15;;;;;;;11.63;7.65;;;16.30;56.40;;;;;;10834555;32;20028;-69
2022/03/21 17:56:17;;;;;;;15.65;8.98;;;16.10;56.60;;;;;;10834263;32;20408;-69
2022/03/21 18:02:21;;;;;;;17.95;9.50;;;15.90;57.10;;;;;;10833650;32;20020;-69
2022/03/21 18:08:25;;;;;;;16.23;8.73;;;15.80;57.20;;;;;;10846236;32;20058;-69
2022/03/21 18:14:27;;;;;;;13.82;7.30;;;15.50;57.70;;;;;;10864383;32;20066;-69
2022/03/21 18:20:42;;;;;;;13.25;8.90;;;15.30;58.50;;;;;;10853560;32;20027;-69
2022/03/21 18:26:45;;;;;;;13.15;10.10;;;15.20;58.70;;;;;;10857592;32;20055;-69
2022/03/21 18:32:47;;;;;;;13.77;9.82;;;15.00;59.00;;;;;;10857407;32;20043;-69
2022/03/21 18:38:49;;;;;;;12.52;9.68;;;14.90;59.40;;;;;;10885329;32;20043;-69
2022/03/21 18:45:01;;;;;;;16.65;11.95;;;14.70;59.60;;;;;;10907627;32;20058;-69
2022/03/21 18:51:03;;;;;;;15.93;10.85;;;14.50;59.70;;;;;;10894079;32;20042;-69
2022/03/21 18:57:07;;;;;;;18.35;11.00;;;14.50;59.10;;;;;;10907088;32;20117;-69
2022/03/21 19:03:11;;;;;;;23.38;16.60;;;14.30;59.80;;;;;;10893661;32;20031;-69
2022/03/21 19:09:14;;;;;;;18.12;12.13;;;14.20;59.50;;;;;;10906615;32;20053;-69
2022/03/21 19:15:19;;;;;;;16.98;11.25;;;14.10;59.50;;;;;;10906113;32;20027;-69
2022/03/21 19:21:21;;;;;;;18.52;13.77;;;13.80;60.30;;;;;;10879184;32;20408;-69
2022/03/21 19:27:24;;;;;;;15.40;10.98;;;13.70;60.70;;;;;;10866204;32;20036;-69
2022/03/21 19:33:26;;;;;;;15.77;11.45;;;13.60;61.10;;;;;;10864407;32;20035;-69
2022/03/21 19:39:30;;;;;;;17.87;12.15;;;13.40;61.80;;;;;;10868072;32;20027;-69
2022/03/21 19:45:35;;;;;;;20.15;11.85;;;13.40;62.00;;;;;;10868212;32;20125;-69
2022/03/21 19:51:37;;;;;;;15.57;10.75;;;13.20;61.50;;;;;;10867123;32;20309;-69
2022/03/21 19:57:39;;;;;;;14.45;9.95;;;13.20;61.90;;;;;;10866868;32;20028;-69
2022/03/21 20:03:41;;;;;;;19.90;16.77;;;13.20;62.20;;;;;;10867605;32;20020;-69
2022/03/21 20:09:45;;;;;;;13.70;11.50;;;13.00;62.00;;;;;;10867324;32;20023;-69
2022/03/21 20:15:47;;;;;;;19.37;12.60;;;12.90;62.00;;;;;;10866840;32;20032;-69
2022/03/21 20:21:49;;;;;;;19.33;12.90;;;12.80;62.40;;;;;;10855034;32;20028;-70
2022/03/21 20:27:51;;;;;;;18.55;15.18;;;12.50;63.00;;;;;;10868620;32;20494;-70
2022/03/21 20:33:53;;;;;;;20.08;13.02;;;12.50;63.40;;;;;;10868407;32;20054;-70
2022/03/21 20:39:55;;;;;;;20.02;16.73;;;12.50;63.10;;;;;;10868420;32;20027;-70
2022/03/21 20:45:57;;;;;;;19.42;15.40;;;12.20;63.70;;;;;;10868121;32;20102;-70
2022/03/21 20:51:59;;;;;;;15.73;12.68;;;12.20;63.90;;;;;;10868129;32;20016;-70
2022/03/21 20:58:01;;;;;;;16.33;13.62;;;12.20;63.80;;;;;;10863941;32;20027;-70
2022/03/21 21:04:04;;;;;;;19.48;14.75;;;12.10;63.90;;;;;;10866563;32;20031;-70
2022/03/21 21:16:27;;;;;;;21.00;16.80;;;12.00;63.80;;;;;;10867736;32;20058;-71
2022/03/21 21:22:28;;;;;;;19.45;16.15;;;12.10;64.50;;;;;;10867634;32;20031;-71
2022/03/21 21:28:31;;;;;;;22.25;19.67;;;11.90;64.50;;;;;;10868687;32;20058;-71
2022/03/21 21:34:34;;;;;;;28.55;22.83;;;11.70;65.10;;;;;;10874260;32;20086;-71
2022/03/21 21:40:37;;;;;;;29.10;19.90;;;11.60;65.30;;;;;;10874062;32;20023;-71
2022/03/21 21:46:39;;;;;;;20.77;16.95;;;11.70;64.90;;;;;;10873921;32;20019;-71
2022/03/21 21:52:41;;;;;;;24.17;18.73;;;11.60;64.70;;;;;;10873849;32;20019;-70
2022/03/21 21:58:46;;;;;;;30.62;24.55;;;11.40;65.10;;;;;;10860599;32;20355;-70
2022/03/21 22:04:48;;;;;;;30.67;23.33;;;11.30;65.50;;;;;;10869265;32;20070;-70
2022/03/21 22:10:50;;;;;;;27.80;19.65;;;11.30;65.70;;;;;;10873220;32;20023;-70
2022/03/21 22:16:52;;;;;;;30.15;24.50;;;11.20;65.10;;;;;;10859659;32;20046;-71
2022/03/21 22:22:54;;;;;;;29.67;19.58;;;11.10;66.40;;;;;;10872813;32;20059;-71
2022/03/21 22:28:56;;;;;;;20.67;16.60;;;11.10;66.40;;;;;;10872703;32;20066;-70
2022/03/21 22:34:58;;;;;;;26.92;18.52;;;11.00;66.40;;;;;;10872397;32;20054;-70
2022/03/21 22:47:21;;;;;;;25.08;18.65;;;11.00;66.70;;;;;;10872002;32;20070;-70
2022/03/21 22:53:23;;;;;;;32.80;26.45;;;11.00;66.80;;;;;;10871539;32;20031;-71
2022/03/21 22:59:25;;;;;;;30.12;24.70;;;11.00;66.70;;;;;;10871492;32;20046;-71
2022/03/21 23:05:27;;;;;;;37.05;29.85;;;11.00;66.40;;;;;;10871206;32;20024;-70
2022/03/21 23:11:29;;;;;;;31.17;24.10;;;10.90;66.00;;;;;;10871116;32;20027;-70
2022/03/21 23:17:31;;;;;;;34.08;24.42;;;11.00;66.10;;;;;;10883956;27;20031;-70
2022/03/21 23:23:33;;;;;;;35.30;22.65;;;11.00;67.00;;;;;;10908051;32;20011;-70
2022/03/21 23:29:35;;;;;;;27.70;22.05;;;10.90;66.50;;;;;;10907769;32;20082;-70
2022/03/21 23:35:39;;;;;;;33.65;22.20;;;10.80;66.80;;;;;;10907412;32;20019;-70
2022/03/21 23:48:02;;;;;;;24.17;19.17;;;10.70;66.90;;;;;;10907304;32;20425;-70
2022/03/21 23:54:04;;;;;;;29.33;22.87;;;10.60;67.10;;;;;;10906290;32;20027;-70
